sensor_id;sensor_type;location;lat;lon;timestamp;pressure;altitude;pressure_sealevel;temperature;humidity
12664;BME280;6396;58.490;15.528;2022-07-29T00:00:08;101490.91;;;16.14;100.00
12664;BME280;6396;58.490;15.528;2022-07-29T00:02:35;101283.91;;;14.91;100.00
12664;BME280;6396;58.490;15.528;2022-07-29T00:05:03;101486.53;;;16.11;100.00
12664;BME280;6396;58.490;15.528;2022-07-29T00:07:30;101502.50;;;16.13;100.00
12664;BME280;6396;58.490;15.528;2022-07-29T00:09:57;101438.63;;;15.85;100.00
12664;BME280;6396;58.490;15.528;2022-07-29T00:12:25;101475.03;;;16.11;100.00
12664;BME280;6396;58.490;15.528;2022-07-29T00:14:53;101464.81;;;15.99;100.00
12664;BME280;6396;58.490;15.528;2022-07-29T00:17:21;101483.09;;;16.08;100.00
12664;BME280;6396;58.490;15.528;2022-07-29T00:19:48;101483.22;;;16.05;100.00
12664;BME280;6396;58.490;15.528;2022-07-29T00:22:15;101437.16;;;15.77;100.00
12664;BME280;6396;58.490;15.528;2022-07-29T00:24:42;101478.97;;;15.99;100.00
12664;BME280;6396;58.490;15.528;2022-07-29T00:27:09;101342.84;;;15.05;100.00
12664;BME280;6396;58.490;15.528;2022-07-29T00:29:37;101482.06;;;15.87;100.00
12664;BME280;6396;58.490;15.528;2022-07-29T00:32:04;101476.19;;;15.78;100.00
12664;BME280;6396;58.490;15.528;2022-07-29T00:34:31;101483.34;;;15.76;100.00
12664;BME280;6396;58.490;15.528;2022-07-29T00:37:15;101454.78;;;15.54;100.00
12664;BME280;6396;58.490;15.528;2022-07-29T00:39:42;101486.25;;;15.68;100.00
12664;BME280;6396;58.490;15.528;2022-07-29T00:42:09;101340.25;;;14.76;100.00
12664;BME280;6396;58.490;15.528;2022-07-29T00:44:38;101482.94;;;15.34;100.00
12664;BME280;6396;58.490;15.528;2022-07-29T00:47:05;101359.09;;;14.69;100.00
12664;BME280;6396;58.490;15.528;2022-07-29T00:49:32;101398.53;;;14.82;100.00
12664;BME280;6396;58.490;15.528;2022-07-29T00:52:00;101492.16;;;15.51;100.00
12664;BME280;6396;58.490;15.528;2022-07-29T00:54:28;101494.81;;;15.51;100.00
12664;BME280;6396;58.490;15.528;2022-07-29T00:56:56;101447.63;;;15.29;100.00
12664;BME280;6396;58.490;15.528;2022-07-29T00:59:24;101488.56;;;15.52;100.00
12664;BME280;6396;58.490;15.528;2022-07-29T01:01:53;101486.84;;;15.50;100.00
12664;BME280;6396;58.490;15.528;2022-07-29T01:04:21;101522.13;;;15.29;100.00
12664;BME280;6396;58.490;15.528;2022-07-29T01:06:48;101438.22;;;15.17;100.00
12664;BME280;6396;58.490;15.528;2022-07-29T01:09:16;101483.41;;;15.46;100.00
12664;BME280;6396;58.490;15.528;2022-07-29T01:11:45;101465.38;;;15.28;100.00
12664;BME280;6396;58.490;15.528;2022-07-29T01:14:13;101370.78;;;14.63;100.00
12664;BME280;6396;58.490;15.528;2022-07-29T01:16:45;101487.91;;;15.46;100.00
12664;BME280;6396;58.490;15.528;2022-07-29T01:19:38;101486.28;;;15.40;100.00
12664;BME280;6396;58.490;15.528;2022-07-29T01:22:25;101488.97;;;15.39;100.00
12664;BME280;6396;58.490;15.528;2022-07-29T01:25:03;101485.44;;;15.38;100.00
12664;BME280;6396;58.490;15.528;2022-07-29T01:27:44;101489.88;;;15.38;100.00
12664;BME280;6396;58.490;15.528;2022-07-29T01:30:13;101227.22;;;13.79;100.00
12664;BME280;6396;58.490;15.528;2022-07-29T01:32:41;101492.53;;;15.39;100.00
12664;BME280;6396;58.490;15.528;2022-07-29T01:35:17;101511.16;;;15.39;100.00
12664;BME280;6396;58.490;15.528;2022-07-29T01:37:50;101470.78;;;15.25;100.00
12664;BME280;6396;58.490;15.528;2022-07-29T01:40:20;101495.25;;;15.36;100.00
12664;BME280;6396;58.490;15.528;2022-07-29T01:42:51;101504.16;;;15.35;100.00
12664;BME280;6396;58.490;15.528;2022-07-29T01:45:24;101445.56;;;15.09;100.00
12664;BME280;6396;58.490;15.528;2022-07-29T01:47:58;101489.53;;;15.21;100.00
12664;BME280;6396;58.490;15.528;2022-07-29T01:50:31;101479.91;;;15.17;100.00
12664;BME280;6396;58.490;15.528;2022-07-29T01:53:02;101497.13;;;15.33;100.00
12664;BME280;6396;58.490;15.528;2022-07-29T01:55:32;101491.81;;;15.33;100.00
12664;BME280;6396;58.490;15.528;2022-07-29T01:58:02;101369.13;;;14.59;100.00
12664;BME280;6396;58.490;15.528;2022-07-29T02:00:32;101493.56;;;15.34;100.00
12664;BME280;6396;58.490;15.528;2022-07-29T02:03:03;101497.09;;;15.34;100.00
12664;BME280;6396;58.490;15.528;2022-07-29T02:05:32;101471.41;;;15.06;100.00
12664;BME280;6396;58.490;15.528;2022-07-29T02:08:00;101250.00;;;13.86;100.00
12664;BME280;6396;58.490;15.528;2022-07-29T02:10:30;101309.16;;;14.21;100.00
12664;BME280;6396;58.490;15.528;2022-07-29T02:12:58;101318.00;;;14.22;100.00
12664;BME280;6396;58.490;15.528;2022-07-29T02:15:29;101500.84;;;15.29;100.00
12664;BME280;6396;58.490;15.528;2022-07-29T02:18:01;101013.59;;;12.46;100.00
12664;BME280;6396;58.490;15.528;2022-07-29T02:20:29;101172.91;;;13.30;100.00
12664;BME280;6396;58.490;15.528;2022-07-29T02:22:58;101508.94;;;15.24;100.00
12664;BME280;6396;58.490;15.528;2022-07-29T02:25:26;101470.13;;;14.90;100.00
12664;BME280;6396;58.490;15.528;2022-07-29T02:27:54;101506.50;;;15.17;100.00
12664;BME280;6396;58.490;15.528;2022-07-29T02:30:22;101493.22;;;14.88;100.00
12664;BME280;6396;58.490;15.528;2022-07-29T02:32:50;101457.09;;;14.81;100.00
12664;BME280;6396;58.490;15.528;2022-07-29T02:35:19;101415.47;;;14.50;100.00
12664;BME280;6396;58.490;15.528;2022-07-29T02:37:48;101454.13;;;14.62;100.00
12664;BME280;6396;58.490;15.528;2022-07-29T02:40:38;101468.97;;;14.69;100.00
12664;BME280;6396;58.490;15.528;2022-07-29T02:43:05;101517.78;;;14.97;100.00
12664;BME280;6396;58.490;15.528;2022-07-29T02:45:33;101329.66;;;13.86;100.00
12664;BME280;6396;58.490;15.528;2022-07-29T02:48:03;101269.50;;;13.56;100.00
12664;BME280;6396;58.490;15.528;2022-07-29T02:50:36;101507.72;;;14.78;100.00
12664;BME280;6396;58.490;15.528;2022-07-29T02:53:08;101251.47;;;13.36;100.00
12664;BME280;6396;58.490;15.528;2022-07-29T02:55:39;101520.59;;;14.91;100.00
12664;BME280;6396;58.490;15.528;2022-07-29T02:58:13;101523.38;;;14.88;100.00
12664;BME280;6396;58.490;15.528;2022-07-29T03:00:42;101051.47;;;12.16;100.00
12664;BME280;6396;58.490;15.528;2022-07-29T03:03:15;101524.25;;;14.87;100.00
12664;BME280;6396;58.490;15.528;2022-07-29T03:05:44;101530.50;;;14.86;100.00
12664;BME280;6396;58.490;15.528;2022-07-29T03:08:12;101457.50;;;14.38;100.00
12664;BME280;6396;58.490;15.528;2022-07-29T03:10:43;101534.91;;;14.87;100.00
12664;BME280;6396;58.490;15.528;2022-07-29T03:13:12;101448.53;;;14.40;100.00
12664;BME280;6396;58.490;15.528;2022-07-29T03:15:39;101530.47;;;14.88;100.00
12664;BME280;6396;58.490;15.528;2022-07-29T03:18:09;101364.16;;;13.86;100.00
12664;BME280;6396;58.490;15.528;2022-07-29T03:20:37;101525.09;;;14.89;100.00
12664;BME280;6396;58.490;15.528;2022-07-29T03:23:05;101477.31;;;14.57;100.00
12664;BME280;6396;58.490;15.528;2022-07-29T03:25:32;101534.78;;;14.92;100.00
12664;BME280;6396;58.490;15.528;2022-07-29T03:27:59;101377.25;;;13.93;100.00
12664;BME280;6396;58.490;15.528;2022-07-29T03:30:26;101467.06;;;14.43;100.00
12664;BME280;6396;58.490;15.528;2022-07-29T03:32:56;101442.53;;;14.34;100.00
12664;BME280;6396;58.490;15.528;2022-07-29T03:35:23;101542.72;;;14.93;100.00
12664;BME280;6396;58.490;15.528;2022-07-29T03:37:50;101422.69;;;14.15;100.00
12664;BME280;6396;58.490;15.528;2022-07-29T03:40:22;101381.63;;;13.96;100.00
12664;BME280;6396;58.490;15.528;2022-07-29T03:42:51;101517.53;;;14.76;100.00
12664;BME280;6396;58.490;15.528;2022-07-29T03:45:21;101558.78;;;14.90;100.00
12664;BME280;6396;58.490;15.528;2022-07-29T03:47:53;101442.75;;;14.25;100.00
12664;BME280;6396;58.490;15.528;2022-07-29T03:50:21;101550.75;;;14.92;100.00
12664;BME280;6396;58.490;15.528;2022-07-29T03:52:49;101457.44;;;14.39;100.00
12664;BME280;6396;58.490;15.528;2022-07-29T03:55:17;101214.78;;;12.86;100.00
12664;BME280;6396;58.490;15.528;2022-07-29T03:57:45;101534.16;;;14.82;100.00
12664;BME280;6396;58.490;15.528;2022-07-29T04:00:13;101577.03;;;15.02;100.00
12664;BME280;6396;58.490;15.528;2022-07-29T04:02:40;101538.19;;;14.97;100.00
12664;BME280;6396;58.490;15.528;2022-07-29T04:05:12;101489.22;;;14.73;100.00
12664;BME280;6396;58.490;15.528;2022-07-29T04:07:39;101466.47;;;14.63;100.00
12664;BME280;6396;58.490;15.528;2022-07-29T04:10:06;101543.88;;;15.14;100.00
12664;BME280;6396;58.490;15.528;2022-07-29T04:12:35;101244.63;;;13.27;100.00
12664;BME280;6396;58.490;15.528;2022-07-29T04:15:02;100923.47;;;11.50;100.00
12664;BME280;6396;58.490;15.528;2022-07-29T04:17:29;101552.63;;;15.17;100.00
12664;BME280;6396;58.490;15.528;2022-07-29T04:19:56;101562.38;;;15.18;100.00
12664;BME280;6396;58.490;15.528;2022-07-29T04:22:23;101557.84;;;15.20;100.00
12664;BME280;6396;58.490;15.528;2022-07-29T04:24:49;101455.22;;;14.55;100.00
12664;BME280;6396;58.490;15.528;2022-07-29T04:27:16;101551.53;;;15.24;100.00
12664;BME280;6396;58.490;15.528;2022-07-29T04:29:44;101304.97;;;13.82;100.00
12664;BME280;6396;58.490;15.528;2022-07-29T04:32:11;101574.38;;;15.31;100.00
12664;BME280;6396;58.490;15.528;2022-07-29T04:34:38;101566.28;;;15.34;100.00
12664;BME280;6396;58.490;15.528;2022-07-29T04:37:05;101580.44;;;15.36;100.00
12664;BME280;6396;58.490;15.528;2022-07-29T04:39:32;101516.56;;;15.07;100.00
12664;BME280;6396;58.490;15.528;2022-07-29T04:41:58;101567.84;;;15.43;100.00
12664;BME280;6396;58.490;15.528;2022-07-29T04:44:25;101302.75;;;13.98;100.00
12664;BME280;6396;58.490;15.528;2022-07-29T04:46:56;101596.06;;;15.48;100.00
12664;BME280;6396;58.490;15.528;2022-07-29T04:49:23;101570.25;;;15.50;100.00
12664;BME280;6396;58.490;15.528;2022-07-29T04:51:50;101522.41;;;15.20;100.00
12664;BME280;6396;58.490;15.528;2022-07-29T04:54:16;101562.53;;;15.43;100.00
12664;BME280;6396;58.490;15.528;2022-07-29T04:56:43;101567.25;;;15.61;100.00
12664;BME280;6396;58.490;15.528;2022-07-29T04:59:11;101505.19;;;15.31;100.00
12664;BME280;6396;58.490;15.528;2022-07-29T05:01:38;101569.59;;;15.72;100.00
12664;BME280;6396;58.490;15.528;2022-07-29T05:04:07;101590.78;;;15.76;100.00
12664;BME280;6396;58.490;15.528;2022-07-29T05:06:33;101572.03;;;15.79;100.00
12664;BME280;6396;58.490;15.528;2022-07-29T05:09:00;101548.41;;;15.69;100.00
12664;BME280;6396;58.490;15.528;2022-07-29T05:11:27;101579.66;;;15.90;100.00
12664;BME280;6396;58.490;15.528;2022-07-29T05:13:54;101579.50;;;15.94;100.00
12664;BME280;6396;58.490;15.528;2022-07-29T05:16:20;101550.66;;;15.81;100.00
12664;BME280;6396;58.490;15.528;2022-07-29T05:18:47;101432.84;;;15.19;100.00
12664;BME280;6396;58.490;15.528;2022-07-29T05:21:16;101578.13;;;16.09;100.00
12664;BME280;6396;58.490;15.528;2022-07-29T05:23:43;101540.66;;;15.87;100.00
12664;BME280;6396;58.490;15.528;2022-07-29T05:26:10;101555.53;;;15.94;100.00
12664;BME280;6396;58.490;15.528;2022-07-29T05:28:37;101557.88;;;16.03;100.00
12664;BME280;6396;58.490;15.528;2022-07-29T05:31:04;101541.44;;;15.91;100.00
12664;BME280;6396;58.490;15.528;2022-07-29T05:33:31;101604.06;;;16.30;100.00
12664;BME280;6396;58.490;15.528;2022-07-29T05:35:58;101456.31;;;15.34;100.00
12664;BME280;6396;58.490;15.528;2022-07-29T05:38:26;101588.59;;;16.41;100.00
12664;BME280;6396;58.490;15.528;2022-07-29T05:40:56;101590.31;;;16.42;100.00
12664;BME280;6396;58.490;15.528;2022-07-29T05:43:23;101587.53;;;16.45;100.00
12664;BME280;6396;58.490;15.528;2022-07-29T05:45:50;101598.09;;;16.49;100.00
12664;BME280;6396;58.490;15.528;2022-07-29T05:48:16;101591.72;;;16.53;100.00
12664;BME280;6396;58.490;15.528;2022-07-29T05:50:43;101481.41;;;15.81;100.00
12664;BME280;6396;58.490;15.528;2022-07-29T05:53:10;101592.41;;;16.60;100.00
12664;BME280;6396;58.490;15.528;2022-07-29T05:55:38;101473.81;;;15.95;100.00
12664;BME280;6396;58.490;15.528;2022-07-29T05:58:05;101592.03;;;16.69;100.00
12664;BME280;6396;58.490;15.528;2022-07-29T06:00:32;101589.16;;;16.75;100.00
12664;BME280;6396;58.490;15.528;2022-07-29T06:02:59;101587.13;;;16.82;100.00
12664;BME280;6396;58.490;15.528;2022-07-29T06:05:26;101560.97;;;16.68;100.00
12664;BME280;6396;58.490;15.528;2022-07-29T06:07:54;101370.09;;;15.66;100.00
12664;BME280;6396;58.490;15.528;2022-07-29T06:10:21;101429.81;;;16.08;100.00
12664;BME280;6396;58.490;15.528;2022-07-29T06:12:49;101360.22;;;15.69;100.00
12664;BME280;6396;58.490;15.528;2022-07-29T06:15:16;101581.09;;;17.01;100.00
12664;BME280;6396;58.490;15.528;2022-07-29T06:17:43;101580.88;;;17.07;100.00
12664;BME280;6396;58.490;15.528;2022-07-29T06:20:10;101467.47;;;16.48;100.00
12664;BME280;6396;58.490;15.528;2022-07-29T06:22:37;101584.66;;;17.25;100.00
12664;BME280;6396;58.490;15.528;2022-07-29T06:25:04;101527.84;;;16.98;100.00
12664;BME280;6396;58.490;15.528;2022-07-29T06:27:31;101592.25;;;17.35;100.00
12664;BME280;6396;58.490;15.528;2022-07-29T06:29:59;101584.81;;;17.43;100.00
12664;BME280;6396;58.490;15.528;2022-07-29T06:32:27;101374.28;;;16.20;100.00
12664;BME280;6396;58.490;15.528;2022-07-29T06:34:53;101550.38;;;17.36;100.00
12664;BME280;6396;58.490;15.528;2022-07-29T06:37:20;101578.03;;;17.58;100.00
12664;BME280;6396;58.490;15.528;2022-07-29T06:39:47;101584.00;;;17.64;100.00
12664;BME280;6396;58.490;15.528;2022-07-29T06:42:34;101589.88;;;17.72;100.00
12664;BME280;6396;58.490;15.528;2022-07-29T06:45:03;101590.34;;;17.83;100.00
12664;BME280;6396;58.490;15.528;2022-07-29T06:47:30;101517.03;;;17.47;100.00
12664;BME280;6396;58.490;15.528;2022-07-29T06:49:57;101599.56;;;17.98;100.00
12664;BME280;6396;58.490;15.528;2022-07-29T06:52:23;101476.91;;;17.26;100.00
12664;BME280;6396;58.490;15.528;2022-07-29T06:54:51;101589.56;;;18.23;100.00
12664;BME280;6396;58.490;15.528;2022-07-29T06:57:18;101563.69;;;18.24;100.00
12664;BME280;6396;58.490;15.528;2022-07-29T06:59:44;101457.25;;;17.71;100.00
12664;BME280;6396;58.490;15.528;2022-07-29T07:02:13;101477.59;;;17.96;100.00
12664;BME280;6396;58.490;15.528;2022-07-29T07:04:39;101589.78;;;18.80;100.00
12664;BME280;6396;58.490;15.528;2022-07-29T07:07:07;101563.00;;;18.80;100.00
12664;BME280;6396;58.490;15.528;2022-07-29T07:09:33;101541.31;;;18.86;100.00
12664;BME280;6396;58.490;15.528;2022-07-29T07:12:00;101524.66;;;18.80;100.00
12664;BME280;6396;58.490;15.528;2022-07-29T07:14:27;101618.38;;;19.57;100.00
12664;BME280;6396;58.490;15.528;2022-07-29T07:16:54;101443.34;;;19.20;100.00
12664;BME280;6396;58.490;15.528;2022-07-29T07:19:22;101456.81;;;19.72;100.00
12664;BME280;6396;58.490;15.528;2022-07-29T07:21:49;101588.41;;;21.39;100.00
12664;BME280;6396;58.490;15.528;2022-07-29T07:24:16;101530.97;;;22.17;100.00
12664;BME280;6396;58.490;15.528;2022-07-29T07:26:43;101598.56;;;23.44;100.00
12664;BME280;6396;58.490;15.528;2022-07-29T07:29:10;101574.47;;;24.22;100.00
12664;BME280;6396;58.490;15.528;2022-07-29T07:31:37;101540.69;;;24.29;100.00
12664;BME280;6396;58.490;15.528;2022-07-29T07:34:04;101537.78;;;24.06;100.00
12664;BME280;6396;58.490;15.528;2022-07-29T07:36:32;101576.34;;;23.67;100.00
12664;BME280;6396;58.490;15.528;2022-07-29T07:38:59;101471.56;;;22.64;100.00
12664;BME280;6396;58.490;15.528;2022-07-29T07:41:27;101570.91;;;23.12;100.00
12664;BME280;6396;58.490;15.528;2022-07-29T07:43:54;101030.19;;;19.95;100.00
12664;BME280;6396;58.490;15.528;2022-07-29T07:46:21;100948.78;;;19.67;100.00
12664;BME280;6396;58.490;15.528;2022-07-29T07:48:48;101575.50;;;23.93;100.00
12664;BME280;6396;58.490;15.528;2022-07-29T07:51:15;101564.97;;;24.81;100.00
12664;BME280;6396;58.490;15.528;2022-07-29T07:53:43;101571.06;;;25.71;86.38
12664;BME280;6396;58.490;15.528;2022-07-29T07:56:10;101489.19;;;26.04;86.61
12664;BME280;6396;58.490;15.528;2022-07-29T07:58:37;101580.88;;;26.67;70.33
12664;BME280;6396;58.490;15.528;2022-07-29T08:01:04;101573.00;;;27.09;69.43
12664;BME280;6396;58.490;15.528;2022-07-29T08:03:31;101562.66;;;27.36;66.04
12664;BME280;6396;58.490;15.528;2022-07-29T08:05:57;101427.41;;;27.10;65.96
12664;BME280;6396;58.490;15.528;2022-07-29T08:08:24;101561.31;;;28.38;63.80
12664;BME280;6396;58.490;15.528;2022-07-29T08:10:52;101621.00;;;28.72;51.54
12664;BME280;6396;58.490;15.528;2022-07-29T08:13:22;101293.66;;;26.87;50.90
12664;BME280;6396;58.490;15.528;2022-07-29T08:15:50;101485.59;;;28.75;54.26
12664;BME280;6396;58.490;15.528;2022-07-29T08:18:22;101569.56;;;29.70;48.32
12664;BME280;6396;58.490;15.528;2022-07-29T08:20:49;101579.91;;;29.76;48.48
12664;BME280;6396;58.490;15.528;2022-07-29T08:23:16;101195.88;;;27.82;47.46
12664;BME280;6396;58.490;15.528;2022-07-29T08:25:44;101581.69;;;30.15;44.82
12664;BME280;6396;58.490;15.528;2022-07-29T08:28:13;101559.94;;;30.34;43.94
12664;BME280;6396;58.490;15.528;2022-07-29T08:30:40;101596.66;;;30.68;42.37
12664;BME280;6396;58.490;15.528;2022-07-29T08:33:06;101577.41;;;30.89;41.15
12664;BME280;6396;58.490;15.528;2022-07-29T08:35:33;101442.13;;;29.93;42.40
12664;BME280;6396;58.490;15.528;2022-07-29T08:38:00;101474.38;;;30.35;39.06
12664;BME280;6396;58.490;15.528;2022-07-29T08:40:28;101578.72;;;30.76;38.74
12664;BME280;6396;58.490;15.528;2022-07-29T08:42:55;101583.16;;;30.77;37.78
12664;BME280;6396;58.490;15.528;2022-07-29T08:45:24;101582.19;;;31.24;39.21
12664;BME280;6396;58.490;15.528;2022-07-29T08:47:52;101604.72;;;31.45;39.24
12664;BME280;6396;58.490;15.528;2022-07-29T08:50:19;101580.47;;;31.23;36.88
12664;BME280;6396;58.490;15.528;2022-07-29T08:52:46;101476.22;;;30.54;36.07
12664;BME280;6396;58.490;15.528;2022-07-29T08:55:16;101486.56;;;30.50;37.41
12664;BME280;6396;58.490;15.528;2022-07-29T08:57:44;101533.34;;;30.65;36.48
12664;BME280;6396;58.490;15.528;2022-07-29T09:00:12;101570.81;;;30.53;37.69
12664;BME280;6396;58.490;15.528;2022-07-29T09:02:44;101586.31;;;30.72;37.58
12664;BME280;6396;58.490;15.528;2022-07-29T09:05:13;101581.72;;;30.53;40.04
12664;BME280;6396;58.490;15.528;2022-07-29T09:07:40;101289.56;;;28.18;40.93
12664;BME280;6396;58.490;15.528;2022-07-29T09:10:09;101581.22;;;29.51;40.71
12664;BME280;6396;58.490;15.528;2022-07-29T09:12:36;101580.97;;;29.64;40.79
12664;BME280;6396;58.490;15.528;2022-07-29T09:15:03;101583.97;;;30.01;41.03
12664;BME280;6396;58.490;15.528;2022-07-29T09:17:42;101561.31;;;29.81;36.18
12664;BME280;6396;58.490;15.528;2022-07-29T09:20:10;101587.72;;;30.19;35.34
12664;BME280;6396;58.490;15.528;2022-07-29T09:22:37;101508.13;;;29.47;38.12
12664;BME280;6396;58.490;15.528;2022-07-29T09:25:05;101589.94;;;30.25;37.26
12664;BME280;6396;58.490;15.528;2022-07-29T09:27:32;101505.78;;;29.92;36.85
12664;BME280;6396;58.490;15.528;2022-07-29T09:30:01;101557.31;;;30.42;36.69
12664;BME280;6396;58.490;15.528;2022-07-29T09:32:30;101592.06;;;30.79;32.71
12664;BME280;6396;58.490;15.528;2022-07-29T09:35:30;101595.63;;;30.22;34.08
12664;BME280;6396;58.490;15.528;2022-07-29T09:37:57;101329.19;;;28.81;34.79
12664;BME280;6396;58.490;15.528;2022-07-29T09:40:25;101578.44;;;30.31;35.76
12664;BME280;6396;58.490;15.528;2022-07-29T09:42:53;101500.22;;;29.74;35.09
12664;BME280;6396;58.490;15.528;2022-07-29T09:45:29;101576.28;;;30.34;35.55
12664;BME280;6396;58.490;15.528;2022-07-29T09:47:57;101393.75;;;29.28;33.60
12664;BME280;6396;58.490;15.528;2022-07-29T09:50:40;101575.97;;;30.56;34.34
12664;BME280;6396;58.490;15.528;2022-07-29T09:53:08;101571.66;;;30.63;32.51
12664;BME280;6396;58.490;15.528;2022-07-29T09:55:46;101442.66;;;29.58;26.59
12664;BME280;6396;58.490;15.528;2022-07-29T09:58:19;101519.72;;;30.08;29.97
12664;BME280;6396;58.490;15.528;2022-07-29T10:00:47;101560.63;;;30.27;29.44
12664;BME280;6396;58.490;15.528;2022-07-29T10:03:15;101573.13;;;30.29;30.04
12664;BME280;6396;58.490;15.528;2022-07-29T10:05:45;101546.84;;;30.00;28.26
12664;BME280;6396;58.490;15.528;2022-07-29T10:08:12;101520.44;;;29.91;30.36
12664;BME280;6396;58.490;15.528;2022-07-29T10:10:40;101571.53;;;30.27;31.29
12664;BME280;6396;58.490;15.528;2022-07-29T10:13:09;101568.56;;;30.30;28.92
12664;BME280;6396;58.490;15.528;2022-07-29T10:15:39;101558.47;;;30.30;27.08
12664;BME280;6396;58.490;15.528;2022-07-29T10:18:09;101507.72;;;29.61;28.63
12664;BME280;6396;58.490;15.528;2022-07-29T10:20:37;101485.31;;;29.38;28.78
12664;BME280;6396;58.490;15.528;2022-07-29T10:23:06;101543.78;;;29.84;30.27
12664;BME280;6396;58.490;15.528;2022-07-29T10:25:33;101556.56;;;30.02;31.77
12664;BME280;6396;58.490;15.528;2022-07-29T10:28:00;101494.41;;;29.58;30.40
12664;BME280;6396;58.490;15.528;2022-07-29T10:30:27;101226.81;;;27.70;29.61
12664;BME280;6396;58.490;15.528;2022-07-29T10:33:07;101478.56;;;29.33;29.04
12664;BME280;6396;58.490;15.528;2022-07-29T10:35:48;101573.91;;;29.82;32.26
12664;BME280;6396;58.490;15.528;2022-07-29T10:38:54;101550.88;;;29.56;28.24
12664;BME280;6396;58.490;15.528;2022-07-29T10:41:39;101553.75;;;29.64;27.56
12664;BME280;6396;58.490;15.528;2022-07-29T10:44:17;101507.78;;;29.31;29.25
12664;BME280;6396;58.490;15.528;2022-07-29T10:46:45;101417.09;;;28.81;31.64
12664;BME280;6396;58.490;15.528;2022-07-29T10:49:13;101494.63;;;29.36;31.45
12664;BME280;6396;58.490;15.528;2022-07-29T10:52:01;101549.84;;;29.47;33.26
12664;BME280;6396;58.490;15.528;2022-07-29T10:54:47;101499.06;;;29.07;34.25
12664;BME280;6396;58.490;15.528;2022-07-29T10:57:18;101470.16;;;28.76;31.79
12664;BME280;6396;58.490;15.528;2022-07-29T10:59:46;101490.09;;;28.86;33.37
12664;BME280;6396;58.490;15.528;2022-07-29T11:02:42;101542.13;;;29.13;33.33
12664;BME280;6396;58.490;15.528;2022-07-29T11:05:11;101380.47;;;28.34;31.56
12664;BME280;6396;58.490;15.528;2022-07-29T11:08:01;101538.31;;;29.25;32.78
12664;BME280;6396;58.490;15.528;2022-07-29T11:10:27;101556.72;;;28.91;31.53
12664;BME280;6396;58.490;15.528;2022-07-29T11:12:54;101502.22;;;28.51;32.53
12664;BME280;6396;58.490;15.528;2022-07-29T11:15:21;101580.88;;;28.85;33.21
12664;BME280;6396;58.490;15.528;2022-07-29T11:18:08;101534.53;;;28.96;32.28
12664;BME280;6396;58.490;15.528;2022-07-29T11:20:39;101531.31;;;28.81;31.16
12664;BME280;6396;58.490;15.528;2022-07-29T11:23:21;101528.22;;;28.65;31.14
12664;BME280;6396;58.490;15.528;2022-07-29T11:26:16;101527.34;;;28.65;31.93
12664;BME280;6396;58.490;15.528;2022-07-29T11:28:54;101530.63;;;28.47;32.62
12664;BME280;6396;58.490;15.528;2022-07-29T11:31:34;101526.28;;;28.56;33.54
12664;BME280;6396;58.490;15.528;2022-07-29T11:34:19;101500.59;;;28.28;33.54
12664;BME280;6396;58.490;15.528;2022-07-29T11:37:14;101528.97;;;28.35;34.41
12664;BME280;6396;58.490;15.528;2022-07-29T11:39:42;101362.09;;;27.44;33.24
12664;BME280;6396;58.490;15.528;2022-07-29T11:42:42;101525.78;;;28.30;35.32
12664;BME280;6396;58.490;15.528;2022-07-29T11:45:11;100972.19;;;24.93;34.27
12664;BME280;6396;58.490;15.528;2022-07-29T11:47:40;101407.47;;;27.42;34.41
12664;BME280;6396;58.490;15.528;2022-07-29T11:50:08;101533.56;;;28.03;36.39
12664;BME280;6396;58.490;15.528;2022-07-29T11:52:38;101517.25;;;28.03;39.63
12664;BME280;6396;58.490;15.528;2022-07-29T11:55:10;101471.66;;;27.75;39.38
12664;BME280;6396;58.490;15.528;2022-07-29T11:57:46;101539.00;;;27.92;37.33
12664;BME280;6396;58.490;15.528;2022-07-29T12:00:28;101513.41;;;27.52;34.47
12664;BME280;6396;58.490;15.528;2022-07-29T12:02:56;101538.84;;;27.62;35.83
12664;BME280;6396;58.490;15.528;2022-07-29T12:05:35;101433.19;;;27.05;36.33
12664;BME280;6396;58.490;15.528;2022-07-29T12:08:08;101516.13;;;27.63;37.53
12664;BME280;6396;58.490;15.528;2022-07-29T12:10:35;101502.81;;;27.49;40.77
12664;BME280;6396;58.490;15.528;2022-07-29T12:13:03;101516.13;;;27.52;41.93
12664;BME280;6396;58.490;15.528;2022-07-29T12:15:30;101547.38;;;27.46;39.72
12664;BME280;6396;58.490;15.528;2022-07-29T12:17:57;101458.31;;;26.96;38.88
12664;BME280;6396;58.490;15.528;2022-07-29T12:20:25;101516.78;;;27.11;40.57
12664;BME280;6396;58.490;15.528;2022-07-29T12:22:53;101388.78;;;26.40;41.16
12664;BME280;6396;58.490;15.528;2022-07-29T12:25:21;101357.94;;;25.97;41.30
12664;BME280;6396;58.490;15.528;2022-07-29T12:27:57;101510.72;;;26.86;41.47
12664;BME280;6396;58.490;15.528;2022-07-29T12:30:35;101454.84;;;26.50;38.82
12664;BME280;6396;58.490;15.528;2022-07-29T12:33:11;101407.16;;;26.25;36.93
12664;BME280;6396;58.490;15.528;2022-07-29T12:35:38;101515.88;;;26.78;38.80
12664;BME280;6396;58.490;15.528;2022-07-29T12:38:06;101548.78;;;26.73;38.71
12664;BME280;6396;58.490;15.528;2022-07-29T12:40:36;101199.06;;;24.84;42.04
12664;BME280;6396;58.490;15.528;2022-07-29T12:43:07;101308.06;;;25.43;41.70
12664;BME280;6396;58.490;15.528;2022-07-29T12:45:37;101524.63;;;26.70;43.68
12664;BME280;6396;58.490;15.528;2022-07-29T12:48:06;101358.72;;;25.64;42.39
12664;BME280;6396;58.490;15.528;2022-07-29T12:50:34;101243.69;;;24.89;47.62
12664;BME280;6396;58.490;15.528;2022-07-29T12:53:09;101336.91;;;25.31;50.35
12664;BME280;6396;58.490;15.528;2022-07-29T12:55:41;101469.81;;;25.97;44.56